Time;durP1;ratioP1;P1;durP2;ratioP2;P2;SDS_P1;SDS_P2;PMS_P1;PMS_P2;Temp;Humidity;BMP_temperature;BMP_pressure;BME280_temperature;BME280_humidity;BME280_pressure;Samples;Min_cycle;Max_cycle;Signal;HPM_P1;HPM_P2
2022/03/04 03:03:18;;;;;;;31.45;5.97;;;23.20;35.20;;;;;;5105828;27;20496;-71
2022/03/04 03:05:44;;;;;;;36.22;6.55;;;22.70;35.70;;;;;;5104587;28;20086;-70
2022/03/04 03:08:11;;;;;;;25.27;6.13;;;22.70;35.80;;;;;;5104234;28;20073;-69
2022/03/04 03:10:38;;;;;;;40.55;6.53;;;22.70;35.80;;;;;;5103324;28;20468;-69
2022/03/04 03:13:04;;;;;;;24.83;6.57;;;22.60;35.80;;;;;;5104214;28;20167;-69
2022/03/04 03:15:31;;;;;;;31.90;7.30;;;22.60;35.80;;;;;;5105061;28;20075;-68
2022/03/04 03:17:57;;;;;;;23.17;7.05;;;22.50;35.70;;;;;;5103146;28;20164;-69
2022/03/04 03:20:24;;;;;;;34.30;8.55;;;22.50;36.60;;;;;;5101708;28;20089;-67
2022/03/04 03:22:50;;;;;;;27.13;7.35;;;22.30;37.50;;;;;;5101999;28;20092;-69
2022/03/04 03:25:16;;;;;;;35.75;6.68;;;22.20;38.80;;;;;;5101983;28;20097;-69
2022/03/04 03:27:43;;;;;;;32.10;7.03;;;22.20;39.90;;;;;;5084408;28;20185;-68
2022/03/04 03:30:10;;;;;;;32.95;6.40;;;22.10;40.60;;;;;;5102099;28;20072;-68
2022/03/04 03:32:37;;;;;;;38.10;8.32;;;22.10;40.60;;;;;;5102015;28;20126;-68
2022/03/04 03:35:04;;;;;;;50.17;8.27;;;22.20;41.00;;;;;;5100775;28;20091;-69
2022/03/04 03:37:30;;;;;;;42.58;8.52;;;22.10;41.00;;;;;;5101762;28;20096;-69
2022/03/04 03:39:56;;;;;;;41.28;6.90;;;22.10;40.80;;;;;;5099210;28;20155;-69
2022/03/04 03:42:23;;;;;;;41.42;6.78;;;22.10;40.70;;;;;;5084378;28;20129;-68
2022/03/04 03:44:49;;;;;;;35.17;7.25;;;22.10;40.60;;;;;;5085013;28;20112;-69
2022/03/04 03:47:15;;;;;;;33.25;6.85;;;21.90;40.90;;;;;;5102388;28;20096;-69
2022/03/04 03:49:42;;;;;;;40.20;6.03;;;21.90;41.00;;;;;;5101210;28;20171;-70
2022/03/04 03:52:08;;;;;;;48.70;6.32;;;21.90;41.20;;;;;;5102493;28;21061;-69
2022/03/04 03:54:35;;;;;;;38.80;6.07;;;21.90;41.20;;;;;;5101094;28;20076;-69
2022/03/04 03:57:01;;;;;;;52.55;6.57;;;21.80;41.40;;;;;;5100543;28;20548;-69
2022/03/04 03:59:28;;;;;;;58.47;8.73;;;21.80;41.70;;;;;;5101210;28;20439;-68
2022/03/04 04:01:54;;;;;;;53.72;8.32;;;21.70;42.00;;;;;;5099500;28;20566;-68
2022/03/04 04:04:21;;;;;;;80.82;11.68;;;21.70;42.30;;;;;;5098275;28;20083;-69
2022/03/04 04:06:47;;;;;;;82.25;13.95;;;21.60;42.60;;;;;;5084383;28;20100;-69
2022/03/04 04:09:13;;;;;;;77.90;16.52;;;21.60;42.70;;;;;;5098393;28;20103;-69
2022/03/04 04:11:40;;;;;;;70.30;13.93;;;21.50;42.60;;;;;;5099650;28;20096;-69
2022/03/04 04:14:08;;;;;;;64.82;12.05;;;21.50;42.60;;;;;;5091319;28;20434;-71
2022/03/04 04:16:35;;;;;;;55.25;13.30;;;21.40;42.70;;;;;;5068685;28;20517;-70
2022/03/04 04:19:02;;;;;;;83.25;12.00;;;21.20;43.10;;;;;;5087879;28;20505;-70
2022/03/04 04:21:29;;;;;;;69.13;10.88;;;21.10;43.40;;;;;;5087099;28;20453;-70
2022/03/04 04:23:56;;;;;;;68.95;13.75;;;21.00;43.60;;;;;;5086165;28;20430;-71
2022/03/04 04:26:23;;;;;;;57.50;13.15;;;20.90;43.80;;;;;;5069337;28;20084;-71
2022/03/04 04:28:51;;;;;;;85.43;14.43;;;20.80;44.00;;;;;;5070501;28;20129;-70
2022/03/04 04:31:18;;;;;;;69.03;14.38;;;20.90;44.30;;;;;;5086020;28;20100;-71
2022/03/04 04:33:45;;;;;;;49.00;12.07;;;20.80;44.50;;;;;;5085554;28;20077;-70
2022/03/04 04:36:11;;;;;;;49.65;10.68;;;20.80;44.60;;;;;;5085625;28;20173;-70
2022/03/04 04:38:38;;;;;;;58.30;10.55;;;20.80;44.60;;;;;;5085489;28;20126;-71
2022/03/04 04:41:06;;;;;;;46.75;9.48;;;20.80;44.20;;;;;;5077065;28;20076;-70
2022/03/04 04:43:33;;;;;;;47.47;9.15;;;20.80;43.70;;;;;;5085687;28;20069;-71
2022/03/04 04:45:59;;;;;;;58.53;10.20;;;20.90;43.50;;;;;;5087200;28;20080;-69
2022/03/04 04:48:25;;;;;;;44.55;8.35;;;20.90;43.70;;;;;;5081734;28;20167;-69
2022/03/04 04:50:52;;;;;;;46.50;9.07;;;20.80;43.70;;;;;;5083783;28;20613;-74
2022/03/04 04:53:18;;;;;;;45.72;8.38;;;20.90;43.70;;;;;;5086080;28;20088;-70
2022/03/04 04:55:45;;;;;;;37.30;10.05;;;20.90;44.00;;;;;;5087923;28;20171;-71
2022/03/04 04:58:11;;;;;;;29.35;8.88;;;20.90;44.00;;;;;;5083715;28;20148;-72
2022/03/04 05:00:38;;;;;;;41.85;9.18;;;20.90;44.10;;;;;;5086501;28;20073;-74
2022/03/04 05:03:04;;;;;;;52.83;9.10;;;20.80;43.90;;;;;;5083928;28;20197;-74
2022/03/04 05:05:31;;;;;;;33.95;7.10;;;20.80;43.10;;;;;;5086875;28;20561;-74
2022/03/04 05:07:57;;;;;;;33.10;7.63;;;20.70;42.60;;;;;;5087926;28;20068;-73
2022/03/04 05:10:24;;;;;;;32.97;6.95;;;20.70;42.40;;;;;;5083421;28;20539;-74
2022/03/04 05:12:50;;;;;;;32.20;6.22;;;20.80;41.70;;;;;;5070388;28;20084;-73
2022/03/04 05:15:16;;;;;;;30.63;6.60;;;20.80;41.60;;;;;;5086251;28;20069;-73
2022/03/04 05:17:44;;;;;;;25.65;5.75;;;20.80;41.50;;;;;;5084971;28;20124;-73
2022/03/04 05:20:11;;;;;;;34.95;6.22;;;20.70;41.40;;;;;;5086846;28;20107;-73
2022/03/04 05:22:38;;;;;;;29.85;6.15;;;20.70;41.30;;;;;;5084215;28;20084;-73
2022/03/04 05:25:04;;;;;;;32.75;6.32;;;20.70;41.50;;;;;;5085441;28;20083;-72
2022/03/04 05:27:31;;;;;;;30.77;6.07;;;20.60;41.90;;;;;;5083663;28;20458;-73
2022/03/04 05:29:57;;;;;;;24.05;5.40;;;20.60;42.20;;;;;;5085833;28;20072;-73
2022/03/04 05:32:23;;;;;;;21.98;5.07;;;20.60;41.80;;;;;;5085389;28;20230;-73
2022/03/04 05:34:50;;;;;;;22.17;4.85;;;20.50;41.60;;;;;;5085396;28;20092;-73
2022/03/04 05:37:56;;;;;;;19.95;4.85;;;20.50;40.90;;;;;;5082577;28;20896;-68
2022/03/04 05:40:22;;;;;;;18.73;4.82;;;20.50;39.60;;;;;;5064914;28;20104;-69
2022/03/04 05:42:49;;;;;;;81.57;9.20;;;20.40;38.30;;;;;;5061584;28;20117;-69
2022/03/04 05:45:15;;;;;;;41.90;5.57;;;20.30;37.90;;;;;;5063965;28;20089;-68
2022/03/04 05:47:41;;;;;;;;;;;20.30;37.80;;;;;;5063410;28;20169;-67
2022/03/04 05:50:08;;;;;;;23.33;4.32;;;20.20;37.60;;;;;;5063319;28;20287;-71
2022/03/04 05:52:35;;;;;;;16.42;3.85;;;20.10;35.90;;;;;;5064298;28;20676;-68
2022/03/04 05:55:01;;;;;;;24.90;4.10;;;20.00;35.80;;;;;;5061235;28;20066;-68
2022/03/04 05:57:27;;;;;;;36.15;4.35;;;20.00;35.00;;;;;;5046047;28;21214;-68
2022/03/04 05:59:54;;;;;;;25.92;4.10;;;20.00;35.20;;;;;;5066199;28;20089;-69
2022/03/04 06:02:20;;;;;;;;;;;20.00;35.10;;;;;;5064964;28;20074;-68
2022/03/04 06:04:46;;;;;;;19.05;4.03;;;19.90;35.10;;;;;;5062521;28;19995;-69
2022/03/04 06:07:13;;;;;;;33.15;5.70;;;19.90;33.10;;;;;;5045566;28;20101;-68
2022/03/04 06:09:39;;;;;;;29.63;4.72;;;19.80;33.00;;;;;;5070519;28;20092;-69
2022/03/04 06:12:06;;;;;;;31.45;4.63;;;19.80;32.30;;;;;;5064737;28;20156;-68
2022/03/04 06:14:32;;;;;;;28.15;4.30;;;19.70;32.00;;;;;;5065098;28;20084;-67
2022/03/04 06:16:59;;;;;;;27.60;4.07;;;19.70;31.50;;;;;;5062323;28;20628;-70
2022/03/04 06:19:25;;;;;;;;;;;19.70;31.50;;;;;;5056840;28;20135;-69
2022/03/04 06:21:52;;;;;;;20.48;3.88;;;19.70;31.30;;;;;;5042806;28;20009;-70
2022/03/04 06:24:18;;;;;;;25.30;3.83;;;19.60;31.50;;;;;;5039870;28;20096;-69
2022/03/04 06:26:45;;;;;;;29.58;4.28;;;19.50;30.80;;;;;;5044123;28;20415;-68
2022/03/04 06:29:11;;;;;;;22.92;4.32;;;19.50;30.40;;;;;;5042911;28;20123;-69
2022/03/04 06:31:38;;;;;;;22.00;3.67;;;19.40;30.20;;;;;;5048073;28;20078;-68
2022/03/04 06:34:05;;;;;;;12.77;3.80;;;19.40;29.90;;;;;;5037421;28;20078;-67
2022/03/04 06:36:31;;;;;;;19.75;3.42;;;19.40;29.20;;;;;;5044552;28;20152;-68
2022/03/04 06:38:57;;;;;;;;;;;19.40;28.30;;;;;;5041651;28;20555;-68
2022/03/04 06:41:23;;;;;;;22.00;4.90;;;19.50;28.20;;;;;;5029844;28;20793;-68
2022/03/04 06:43:50;;;;;;;19.17;3.53;;;19.50;27.80;;;;;;5041809;28;20119;-69
2022/03/04 06:46:16;;;;;;;12.82;3.28;;;19.60;27.10;;;;;;5025653;28;20074;-67
2022/03/04 06:48:43;;;;;;;13.55;3.72;;;19.70;26.90;;;;;;5031302;28;20070;-67
2022/03/04 06:51:09;;;;;;;14.18;4.03;;;19.80;26.90;;;;;;5028416;28;20128;-68
2022/03/04 06:53:36;;;;;;;11.00;3.80;;;19.80;27.10;;;;;;5030592;28;20089;-69
2022/03/04 06:56:02;;;;;;;15.48;3.28;;;19.80;27.20;;;;;;5030705;28;20151;-70
2022/03/04 06:58:29;;;;;;;10.38;2.20;;;19.80;27.30;;;;;;5027898;28;20485;-67
2022/03/04 07:00:55;;;;;;;11.18;2.90;;;19.90;27.40;;;;;;5023997;28;20090;-68
2022/03/04 07:03:23;;;;;;;10.13;2.50;;;19.90;27.60;;;;;;5030773;28;20105;-66
2022/03/04 07:05:50;;;;;;;15.18;2.90;;;19.90;27.80;;;;;;5027589;28;20086;-70
2022/03/04 07:08:16;;;;;;;13.23;2.80;;;20.00;27.60;;;;;;5029584;28;20070;-67
2022/03/04 07:10:43;;;;;;;15.68;3.10;;;20.00;27.60;;;;;;5028017;28;20152;-68
2022/03/04 07:13:10;;;;;;;36.10;9.00;;;20.10;27.50;;;;;;5028411;28;20074;-68
2022/03/04 07:15:37;;;;;;;71.63;19.60;;;20.10;28.40;;;;;;5027955;28;20102;-68
2022/03/04 07:18:03;;;;;;;97.45;26.02;;;20.10;29.80;;;;;;5028473;28;20116;-67
2022/03/04 07:20:30;;;;;;;98.97;28.48;;;20.00;33.50;;;;;;5027345;28;20092;-67
2022/03/04 07:22:56;;;;;;;;;;;19.90;36.10;;;;;;5030666;28;20140;-68
2022/03/04 07:25:22;;;;;;;133.98;38.25;;;19.70;38.10;;;;;;5029537;28;19964;-69
2022/03/04 07:27:49;;;;;;;126.75;37.72;;;19.60;40.20;;;;;;5027946;28;20487;-68
2022/03/04 07:30:17;;;;;;;135.52;33.50;;;19.40;41.80;;;;;;5027485;28;20193;-68
2022/03/04 07:32:44;;;;;;;123.28;33.58;;;19.40;42.50;;;;;;5011311;28;20078;-67
2022/03/04 07:35:12;;;;;;;126.55;32.97;;;19.30;43.10;;;;;;5028860;28;20070;-66
2022/03/04 07:37:40;;;;;;;115.85;29.67;;;19.30;43.40;;;;;;5027905;28;20204;-68
2022/03/04 07:40:08;;;;;;;102.43;30.38;;;19.20;43.50;;;;;;5027114;28;20189;-68
2022/03/04 07:42:35;;;;;;;109.03;27.98;;;19.20;43.90;;;;;;5019245;28;20077;-68
2022/03/04 07:45:03;;;;;;;112.47;26.90;;;19.20;43.90;;;;;;5027391;28;20089;-67
2022/03/04 07:47:30;;;;;;;96.60;27.65;;;19.10;44.00;;;;;;5028156;28;20074;-70
2022/03/04 07:49:57;;;;;;;87.82;24.10;;;19.00;44.50;;;;;;5028947;28;20086;-68
2022/03/04 07:52:31;;;;;;;77.63;25.27;;;18.70;44.50;;;;;;5029342;28;20353;-68
2022/03/04 07:55:02;;;;;;;78.15;24.63;;;18.70;44.70;;;;;;5027716;28;20172;-67
2022/03/04 07:57:31;;;;;;;83.20;22.10;;;18.70;45.10;;;;;;5011484;28;20086;-68
2022/03/04 07:59:58;;;;;;;70.03;16.38;;;18.60;45.00;;;;;;5025724;28;20131;-70
2022/03/04 08:02:24;;;;;;;61.03;12.20;;;18.40;45.60;;;;;;5028049;28;20193;-68
2022/03/04 08:04:51;;;;;;;35.20;8.93;;;18.30;46.40;;;;;;5026509;28;20071;-67
2022/03/04 08:07:18;;;;;;;39.33;10.60;;;18.30;47.20;;;;;;5026461;28;20405;-67
2022/03/04 08:09:45;;;;;;;38.78;10.23;;;18.40;47.60;;;;;;5030351;28;20123;-67
2022/03/04 08:12:12;;;;;;;37.13;9.95;;;18.40;47.80;;;;;;5018016;28;20093;-67
2022/03/04 08:14:38;;;;;;;37.95;10.20;;;18.30;47.80;;;;;;5024125;28;20448;-67
2022/03/04 08:17:05;;;;;;;54.05;11.80;;;18.40;47.90;;;;;;5025646;28;20098;-70
2022/03/04 08:19:33;;;;;;;39.25;10.43;;;18.30;48.50;;;;;;5028358;28;20093;-66
2022/03/04 08:21:59;;;;;;;31.73;9.70;;;18.20;48.70;;;;;;5043318;28;20105;-66
2022/03/04 08:24:25;;;;;;;36.70;9.80;;;18.20;49.00;;;;;;5026377;28;20106;-67
2022/03/04 08:26:51;;;;;;;;;;;18.10;49.30;;;;;;5011560;28;20135;-68
2022/03/04 08:29:18;;;;;;;40.40;10.90;;;18.00;49.40;;;;;;5025492;28;20010;-66
2022/03/04 08:31:45;;;;;;;49.90;11.20;;;17.90;49.70;;;;;;5025669;28;20498;-67
2022/03/04 08:34:11;;;;;;;32.63;10.70;;;17.80;50.40;;;;;;5026454;28;20490;-67
2022/03/04 08:36:38;;;;;;;50.20;11.55;;;17.70;50.40;;;;;;5023519;28;20125;-67
2022/03/04 08:39:05;;;;;;;44.70;10.73;;;17.70;50.70;;;;;;5026286;28;20078;-67
2022/03/04 08:41:33;;;;;;;46.13;11.90;;;17.60;50.80;;;;;;5024170;28;20102;-68
2022/03/04 08:44:00;;;;;;;45.13;11.23;;;17.60;51.70;;;;;;5008746;28;20224;-67
2022/03/04 08:46:28;;;;;;;46.55;10.85;;;17.60;51.70;;;;;;5032504;28;20078;-66
2022/03/04 08:48:54;;;;;;;42.35;12.63;;;17.50;51.80;;;;;;5030245;28;20090;-67
2022/03/04 08:51:26;;;;;;;49.25;12.18;;;17.40;52.00;;;;;;5025381;28;20172;-69
2022/03/04 08:53:53;;;;;;;45.42;12.40;;;17.30;52.00;;;;;;5026371;28;20074;-67
2022/03/04 08:56:20;;;;;;;42.58;11.88;;;17.30;52.00;;;;;;5011002;28;20093;-68
2022/03/04 08:58:46;;;;;;;51.55;11.88;;;17.30;51.60;;;;;;5010575;28;20117;-67
2022/03/04 09:01:13;;;;;;;53.33;12.55;;;17.20;51.50;;;;;;5027018;28;20161;-67
2022/03/04 09:03:40;;;;;;;43.75;11.73;;;17.20;51.70;;;;;;5027490;28;20392;-69
2022/03/04 09:06:06;;;;;;;41.60;11.38;;;17.00;51.60;;;;;;5026153;28;20543;-68
2022/03/04 09:08:33;;;;;;;35.17;10.90;;;17.00;51.60;;;;;;5025371;28;20082;-66
2022/03/04 09:10:59;;;;;;;41.92;10.85;;;16.90;52.30;;;;;;5025392;28;20529;-67
2022/03/04 09:13:26;;;;;;;;;;;16.90;51.40;;;;;;5026614;28;20086;-67
2022/03/04 09:15:52;;;;;;;55.40;14.55;;;16.90;51.70;;;;;;5025742;28;20432;-67
2022/03/04 09:18:18;;;;;;;;;;;16.80;51.80;;;;;;5025470;28;20074;-66
2022/03/04 09:20:44;;;;;;;46.78;15.75;;;16.80;51.60;;;;;;5025385;28;19982;-67
2022/03/04 09:23:11;;;;;;;;;;;16.90;51.30;;;;;;5024949;28;20164;-66
2022/03/04 09:25:37;;;;;;;39.60;13.63;;;16.90;50.60;;;;;;5025983;28;20008;-67
2022/03/04 09:28:04;;;;;;;29.20;10.52;;;16.90;50.20;;;;;;5027315;28;20090;-68
2022/03/04 09:30:33;;;;;;;35.40;10.73;;;16.90;49.00;;;;;;5008937;28;20528;-68
2022/03/04 09:33:00;;;;;;;36.15;10.68;;;17.00;48.90;;;;;;5023353;28;20078;-68
2022/03/04 09:35:26;;;;;;;35.13;10.65;;;17.00;48.50;;;;;;5024431;28;20595;-68
2022/03/04 09:37:53;;;;;;;40.15;10.85;;;17.10;48.60;;;;;;5022970;28;20117;-68
2022/03/04 09:40:19;;;;;;;;;;;17.10;48.40;;;;;;5026105;28;20101;-67
2022/03/04 09:42:45;;;;;;;34.28;8.45;;;17.10;48.20;;;;;;5026579;28;19958;-70
2022/03/04 09:45:11;;;;;;;;;;;17.10;47.20;;;;;;5026391;28;20149;-68
2022/03/04 09:47:39;;;;;;;53.45;4.63;;;17.10;45.90;;;;;;5025530;28;20055;-70
2022/03/04 09:50:06;;;;;;;77.10;5.35;;;17.20;45.30;;;;;;5023010;28;20206;-68
2022/03/04 09:52:33;;;;;;;88.95;5.50;;;17.20;45.70;;;;;;5024192;28;20070;-68
2022/03/04 09:55:00;;;;;;;69.90;5.45;;;17.30;46.50;;;;;;5025782;28;20161;-68
2022/03/04 09:57:27;;;;;;;68.95;4.63;;;17.40;47.10;;;;;;5024803;28;20559;-67
2022/03/04 09:59:53;;;;;;;77.70;4.95;;;17.30;47.50;;;;;;5022630;28;20074;-67
2022/03/04 10:02:20;;;;;;;37.35;4.15;;;17.30;48.20;;;;;;5024060;28;20097;-67
2022/03/04 10:04:56;;;;;;;26.30;3.47;;;17.30;48.50;;;;;;5025892;28;20082;-66
2022/03/04 10:07:22;;;;;;;22.80;2.88;;;17.30;48.70;;;;;;5038267;28;20574;-67
2022/03/04 10:09:52;;;;;;;;;;;17.30;48.90;;;;;;5026576;28;20094;-68
2022/03/04 10:12:22;;;;;;;32.72;3.30;;;17.30;49.10;;;;;;5024266;28;19957;-68
2022/03/04 10:15:07;;;;;;;15.43;2.75;;;17.30;49.10;;;;;;5024339;28;20089;-68
2022/03/04 10:17:37;;;;;;;20.83;2.65;;;17.30;49.10;;;;;;5025269;28;20631;-69
2022/03/04 10:20:15;;;;;;;17.00;2.45;;;17.30;49.00;;;;;;5025807;28;20096;-68
2022/03/04 10:22:47;;;;;;;12.73;2.58;;;17.20;49.10;;;;;;5009642;28;20109;-67
2022/03/04 10:25:24;;;;;;;19.17;2.60;;;17.20;49.10;;;;;;5028084;28;20109;-67
2022/03/04 10:27:52;;;;;;;21.48;3.03;;;17.20;49.00;;;;;;4996136;28;20112;-68
2022/03/04 10:30:30;;;;;;;18.33;2.95;;;17.20;49.00;;;;;;5028652;28;20117;-68
2022/03/04 10:33:11;;;;;;;15.15;2.47;;;17.20;49.10;;;;;;5042247;28;20078;-68
2022/03/04 10:35:39;;;;;;;16.92;2.60;;;17.20;49.10;;;;;;5028235;28;20069;-68
2022/03/04 10:38:05;;;;;;;16.38;2.10;;;17.20;49.10;;;;;;5029551;28;20500;-66
2022/03/04 10:40:36;;;;;;;12.23;2.35;;;17.20;49.10;;;;;;5011545;28;20078;-69
2022/03/04 10:43:07;;;;;;;13.50;2.63;;;17.10;49.20;;;;;;5027312;28;20114;-68
2022/03/04 10:45:41;;;;;;;14.18;2.35;;;17.10;49.30;;;;;;5027421;28;20188;-67
2022/03/04 10:48:17;;;;;;;18.80;2.30;;;17.10;49.40;;;;;;5027592;28;20528;-67
2022/03/04 10:51:09;;;;;;;13.73;2.35;;;17.00;49.30;;;;;;5027550;28;20073;-68
2022/03/04 10:53:35;;;;;;;17.27;2.35;;;17.00;49.60;;;;;;5012386;28;20737;-66
2022/03/04 10:56:04;;;;;;;;;;;16.90;49.90;;;;;;5025083;28;20093;-67
2022/03/04 10:58:39;;;;;;;15.02;2.25;;;16.90;50.70;;;;;;5031187;28;20027;-67
2022/03/04 11:01:19;;;;;;;16.55;2.88;;;16.70;50.90;;;;;;5027737;28;20152;-67
2022/03/04 11:03:46;;;;;;;21.35;2.58;;;16.70;51.80;;;;;;5027581;28;20558;-68
2022/03/04 11:06:15;;;;;;;15.23;2.50;;;16.50;52.60;;;;;;5012264;28;20078;-68
2022/03/04 11:08:42;;;;;;;19.63;2.63;;;16.40;53.10;;;;;;5028193;28;20177;-70
2022/03/04 11:11:10;;;;;;;10.32;2.10;;;16.30;53.60;;;;;;5025543;28;20082;-67
2022/03/04 11:13:37;;;;;;;7.93;2.15;;;16.20;53.90;;;;;;5026235;28;20073;-66
2022/03/04 11:16:06;;;;;;;8.45;2.00;;;16.20;54.90;;;;;;5028881;28;20094;-68
2022/03/04 11:18:34;;;;;;;6.03;2.05;;;16.20;54.40;;;;;;5029394;28;20540;-67
2022/03/04 11:21:04;;;;;;;9.07;1.95;;;16.10;54.50;;;;;;5029269;28;20093;-68
2022/03/04 11:23:37;;;;;;;8.88;2.15;;;16.10;54.70;;;;;;5027623;28;20201;-70
2022/03/04 11:26:25;;;;;;;6.95;1.73;;;16.10;54.90;;;;;;5027767;28;20082;-68
2022/03/04 11:28:54;;;;;;;7.15;1.80;;;16.10;54.90;;;;;;5028934;28;20124;-68
2022/03/04 11:31:22;;;;;;;8.73;2.00;;;16.10;55.10;;;;;;5030051;28;20421;-67
2022/03/04 11:33:54;;;;;;;9.82;1.98;;;16.10;55.20;;;;;;5027319;28;20101;-67
2022/03/04 11:36:25;;;;;;;10.77;1.75;;;16.00;55.20;;;;;;5027092;28;20522;-66
2022/03/04 11:38:53;;;;;;;9.60;2.33;;;15.90;55.50;;;;;;5011800;28;20070;-69
2022/03/04 11:41:34;;;;;;;13.65;2.08;;;15.90;55.80;;;;;;5044051;28;20080;-70
2022/03/04 11:44:12;;;;;;;10.75;2.50;;;15.80;55.80;;;;;;5027953;28;20082;-69
2022/03/04 11:47:13;;;;;;;11.80;1.90;;;15.70;55.70;;;;;;5027447;28;20088;-67
2022/03/04 11:49:48;;;;;;;9.18;2.05;;;15.60;55.90;;;;;;5027286;28;20102;-68
2022/03/04 11:52:27;;;;;;;13.25;2.20;;;15.60;56.50;;;;;;5028616;28;20163;-67
2022/03/04 11:55:00;;;;;;;16.67;2.28;;;15.60;56.30;;;;;;5025954;28;20443;-68
2022/03/04 11:57:29;;;;;;;17.42;2.42;;;15.60;56.50;;;;;;5028412;28;20117;-67
2022/03/04 12:00:18;;;;;;;8.70;2.10;;;15.60;56.20;;;;;;5039755;28;20463;-67
2022/03/04 12:02:47;;;;;;;9.15;2.28;;;15.50;56.40;;;;;;5027820;28;20121;-67
2022/03/04 12:05:14;;;;;;;11.25;2.33;;;15.50;56.50;;;;;;5040853;28;20094;-67
2022/03/04 12:07:47;;;;;;;;;;;15.40;56.80;;;;;;5027134;28;20086;-68
2022/03/04 12:10:16;;;;;;;12.80;2.83;;;15.30;57.40;;;;;;5026588;28;19982;-67
2022/03/04 12:13:09;;;;;;;16.98;3.63;;;15.10;57.70;;;;;;5026426;28;20204;-69
2022/03/04 12:15:39;;;;;;;26.48;5.25;;;15.10;58.00;;;;;;5028146;28;20081;-67
2022/03/04 12:18:26;;;;;;;34.97;5.72;;;15.10;57.20;;;;;;5011571;28;20090;-66
2022/03/04 12:21:00;;;;;;;26.08;7.60;;;15.10;56.80;;;;;;5026277;28;20085;-68
2022/03/04 12:23:41;;;;;;;33.45;8.00;;;15.10;56.20;;;;;;5026968;28;20528;-66
2022/03/04 12:26:11;;;;;;;33.13;8.98;;;15.10;56.60;;;;;;5028646;28;20073;-66
2022/03/04 12:28:40;;;;;;;25.05;8.20;;;15.20;55.60;;;;;;5027172;28;20507;-67
2022/03/04 12:31:13;;;;;;;32.15;8.00;;;15.20;55.30;;;;;;5027954;28;20082;-67
2022/03/04 12:33:46;;;;;;;41.85;9.23;;;15.20;55.10;;;;;;5026483;28;20089;-67
2022/03/04 12:36:17;;;;;;;35.17;8.52;;;15.20;54.50;;;;;;5010009;28;20113;-67
2022/03/04 12:38:49;;;;;;;29.17;8.27;;;15.10;54.30;;;;;;5027523;28;20078;-66
2022/03/04 12:41:18;;;;;;;29.98;7.40;;;15.20;54.50;;;;;;5026755;28;20073;-68
2022/03/04 12:43:53;;;;;;;22.13;4.68;;;15.10;55.00;;;;;;5026078;28;20170;-69
2022/03/04 12:46:23;;;;;;;26.42;4.28;;;15.10;56.30;;;;;;5023470;28;20081;-68
2022/03/04 12:48:52;;;;;;;25.40;4.32;;;15.00;56.90;;;;;;5027140;28;20144;-67
2022/03/04 12:51:23;;;;;;;24.67;4.28;;;15.10;56.40;;;;;;5025744;28;20101;-66
2022/03/04 12:53:50;;;;;;;21.42;4.88;;;15.00;56.00;;;;;;5025195;28;20540;-66
2022/03/04 12:56:18;;;;;;;23.20;4.63;;;15.10;55.90;;;;;;5029132;28;20094;-67
2022/03/04 12:58:52;;;;;;;19.30;3.58;;;15.10;56.20;;;;;;5027501;28;20544;-67
2022/03/04 13:01:22;;;;;;;28.67;5.25;;;15.00;56.40;;;;;;5042602;28;20117;-67
2022/03/04 13:03:50;;;;;;;21.23;4.93;;;15.00;56.30;;;;;;5043646;28;20078;-67
2022/03/04 13:06:17;;;;;;;21.00;5.30;;;15.10;56.60;;;;;;5011246;28;20082;-67
2022/03/04 13:08:52;;;;;;;18.27;4.80;;;15.00;56.80;;;;;;5025654;28;20070;-67
2022/03/04 13:11:22;;;;;;;16.27;4.82;;;15.00;57.20;;;;;;5023049;28;20603;-67
2022/03/04 13:14:14;;;;;;;20.55;5.13;;;15.00;57.00;;;;;;5025084;28;20089;-67
2022/03/04 13:16:48;;;;;;;23.35;4.95;;;15.00;56.90;;;;;;5025589;28;20115;-66
2022/03/04 13:19:19;;;;;;;16.30;4.85;;;15.00;57.10;;;;;;5027489;28;20090;-67
2022/03/04 13:21:47;;;;;;;31.92;5.00;;;14.90;57.30;;;;;;5024389;28;20124;-68
2022/03/04 13:24:26;;;;;;;25.83;5.45;;;14.80;57.50;;;;;;5024924;28;20101;-67
2022/03/04 13:27:00;;;;;;;27.02;6.13;;;14.80;57.90;;;;;;5026716;28;20081;-67
2022/03/04 13:29:47;;;;;;;19.05;5.57;;;14.80;57.50;;;;;;5024488;28;20491;-69
2022/03/04 13:32:21;;;;;;;17.05;4.97;;;14.80;57.30;;;;;;5025809;28;20081;-67
2022/03/04 13:35:10;;;;;;;26.25;6.80;;;14.80;57.30;;;;;;5032942;28;20178;-67
2022/03/04 13:37:41;;;;;;;29.25;6.78;;;14.80;57.60;;;;;;5024128;28;20110;-66
2022/03/04 13:40:16;;;;;;;28.80;6.65;;;14.70;57.90;;;;;;5008144;28;20094;-67
2022/03/04 13:42:56;;;;;;;23.05;6.57;;;14.70;58.30;;;;;;5025602;28;20536;-68
2022/03/04 13:45:33;;;;;;;27.52;7.18;;;14.60;58.30;;;;;;5025132;28;20081;-66
2022/03/04 13:48:06;;;;;;;30.83;7.70;;;14.60;58.60;;;;;;5026124;28;20111;-66
2022/03/04 13:50:37;;;;;;;26.58;6.45;;;14.60;58.60;;;;;;5008821;28;20082;-67
2022/03/04 13:53:03;;;;;;;26.00;6.65;;;14.60;58.70;;;;;;5025653;28;20077;-67
2022/03/04 13:55:45;;;;;;;18.85;5.60;;;14.50;59.30;;;;;;5026581;28;20199;-67
2022/03/04 13:58:20;;;;;;;23.77;4.90;;;14.40;58.90;;;;;;5028617;28;20546;-67
2022/03/04 14:00:50;;;;;;;22.15;5.93;;;14.50;59.20;;;;;;5028530;28;20112;-66
2022/03/04 14:03:26;;;;;;;21.85;5.70;;;14.50;59.30;;;;;;5029199;28;20118;-66
2022/03/04 14:06:09;;;;;;;33.75;5.93;;;14.50;59.20;;;;;;5025301;28;20164;-66
2022/03/04 14:08:38;;;;;;;29.35;6.28;;;14.50;59.20;;;;;;5029286;28;20088;-67
2022/03/04 14:11:13;;;;;;;22.38;6.30;;;14.50;59.30;;;;;;5028258;28;20077;-68
2022/03/04 14:13:40;;;;;;;26.40;7.10;;;14.50;59.50;;;;;;5028386;28;20131;-69
2022/03/04 14:16:09;;;;;;;27.38;7.20;;;14.40;59.70;;;;;;5029081;28;20094;-69
2022/03/04 14:18:35;;;;;;;30.75;8.20;;;14.40;60.10;;;;;;5030527;28;20074;-69
2022/03/04 14:21:05;;;;;;;26.52;6.10;;;14.40;60.40;;;;;;5028008;28;20830;-67
2022/03/04 14:23:35;;;;;;;58.25;7.72;;;14.30;60.60;;;;;;5012183;28;20077;-70
2022/03/04 14:26:03;;;;;;;35.97;5.80;;;14.30;61.10;;;;;;5012034;28;20363;-66
2022/03/04 14:28:29;;;;;;;35.50;6.97;;;14.40;61.40;;;;;;5012580;28;20105;-67
2022/03/04 14:30:56;;;;;;;33.95;7.22;;;14.30;61.40;;;;;;5027849;28;20893;-67
2022/03/04 14:33:23;;;;;;;39.97;6.82;;;14.30;61.30;;;;;;5029352;28;20459;-67
2022/03/04 14:35:50;;;;;;;23.58;6.80;;;14.30;61.40;;;;;;5026972;28;20196;-67
2022/03/04 14:38:18;;;;;;;21.60;7.15;;;14.30;61.50;;;;;;5028548;28;20169;-67
2022/03/04 14:40:45;;;;;;;33.25;7.85;;;14.30;61.40;;;;;;5028226;28;20103;-70
2022/03/04 14:43:11;;;;;;;37.85;8.52;;;14.30;61.20;;;;;;5030399;28;20074;-70
2022/03/04 14:45:38;;;;;;;;;;;14.40;61.40;;;;;;5028932;28;20231;-68
2022/03/04 14:48:06;;;;;;;36.63;9.93;;;14.40;61.20;;;;;;5028005;28;19965;-67
2022/03/04 14:50:36;;;;;;;37.63;9.70;;;14.40;60.90;;;;;;5027736;28;20089;-67
2022/03/04 14:53:04;;;;;;;45.88;10.40;;;14.50;60.60;;;;;;5028607;28;20557;-69
2022/03/04 14:55:31;;;;;;;44.08;9.35;;;14.60;60.40;;;;;;5028164;28;20116;-69
2022/03/04 14:58:01;;;;;;;31.02;8.90;;;14.70;59.90;;;;;;5028815;28;20098;-67
2022/03/04 15:00:29;;;;;;;54.67;9.80;;;14.80;59.70;;;;;;5014969;28;20132;-68
2022/03/04 15:02:56;;;;;;;23.50;6.57;;;14.90;59.70;;;;;;5030993;28;20066;-67
2022/03/04 15:05:22;;;;;;;;;;;14.90;59.30;;;;;;5029253;28;20179;-68
2022/03/04 15:07:51;;;;;;;43.15;6.30;;;14.90;58.80;;;;;;5029096;28;19965;-68
2022/03/04 15:10:19;;;;;;;17.77;4.82;;;14.90;58.90;;;;;;5028919;28;20131;-66
2022/03/04 15:12:45;;;;;;;29.80;5.85;;;15.00;58.90;;;;;;5012363;28;20089;-69
2022/03/04 15:15:15;;;;;;;23.67;4.40;;;15.10;58.50;;;;;;5030650;28;20086;-67
2022/03/04 15:17:41;;;;;;;23.02;3.50;;;15.20;58.40;;;;;;5010828;28;20094;-69
2022/03/04 15:20:08;;;;;;;20.05;3.55;;;15.30;58.10;;;;;;5027228;28;20098;-68
2022/03/04 15:22:35;;;;;;;32.67;4.28;;;15.40;57.70;;;;;;5025973;28;20120;-68
2022/03/04 15:25:01;;;;;;;26.15;3.70;;;15.50;57.80;;;;;;5027008;28;20583;-68
2022/03/04 15:27:28;;;;;;;22.83;3.72;;;15.60;57.50;;;;;;5028904;28;20082;-68
2022/03/04 15:29:54;;;;;;;;;;;15.80;57.20;;;;;;5045063;28;20186;-71
2022/03/04 15:32:20;;;;;;;30.85;3.53;;;16.00;56.40;;;;;;5044286;28;20020;-68
2022/03/04 15:34:46;;;;;;;;;;;16.10;55.80;;;;;;5027568;28;20244;-68
2022/03/04 15:37:13;;;;;;;13.25;2.03;;;16.20;55.70;;;;;;5029428;28;19992;-68
2022/03/04 15:39:39;;;;;;;;;;;16.40;55.10;;;;;;5030398;28;20589;-68
2022/03/04 15:42:07;;;;;;;13.23;2.95;;;16.50;55.00;;;;;;5031245;28;20326;-67
2022/03/04 15:44:34;;;;;;;15.10;2.75;;;16.80;54.10;;;;;;5026908;28;20073;-69
2022/03/04 15:47:02;;;;;;;19.08;2.35;;;16.90;54.00;;;;;;5029311;28;20578;-67
2022/03/04 15:49:29;;;;;;;11.68;2.67;;;17.10;53.30;;;;;;5025485;28;20161;-68
2022/03/04 15:51:56;;;;;;;14.55;2.40;;;17.30;52.80;;;;;;5028621;28;20500;-68